Time;durP1;ratioP1;P1;durP2;ratioP2;P2;SDS_P1;SDS_P2;PMS_P1;PMS_P2;Temp;Humidity;BMP_temperature;BMP_pressure;BME280_temperature;BME280_humidity;BME280_pressure;Samples;Min_cycle;Max_cycle;Signal;HPM_P1;HPM_P2
2024/04/24 00:00:30;;;;;;;8.63;7.63;;;8.90;99.90;;;;;;2237012;26;20001;-70
2024/04/24 00:01:31;;;;;;;8.45;7.35;;;8.90;99.90;;;;;;2237435;26;20010;-71
2024/04/24 00:02:31;;;;;;;8.48;6.20;;;8.90;99.90;;;;;;2236684;26;20011;-71
2024/04/24 00:03:32;;;;;;;8.65;6.80;;;8.90;99.90;;;;;;2249185;26;19999;-71
2024/04/24 00:04:33;;;;;;;8.35;7.28;;;8.90;99.90;;;;;;2238275;26;20010;-71
2024/04/24 00:05:33;;;;;;;9.48;7.95;;;8.90;99.90;;;;;;2237394;26;20432;-71
2024/04/24 00:06:34;;;;;;;11.05;7.88;;;8.90;99.90;;;;;;2236886;26;19995;-71
2024/04/24 00:07:34;;;;;;;10.98;7.68;;;8.90;99.90;;;;;;2235405;26;19999;-71
2024/04/24 00:08:35;;;;;;;9.05;7.05;;;8.90;99.90;;;;;;2237141;26;20007;-71
2024/04/24 00:09:35;;;;;;;11.23;8.32;;;8.90;99.90;;;;;;2237795;26;19995;-71
2024/04/24 00:10:36;;;;;;;7.45;6.72;;;8.90;99.90;;;;;;2236662;26;20007;-71
2024/04/24 00:11:36;;;;;;;8.90;6.78;;;8.90;99.90;;;;;;2236867;26;20007;-71
2024/04/24 00:12:37;;;;;;;10.63;7.38;;;8.90;99.90;;;;;;2237895;26;19991;-71
2024/04/24 00:13:37;;;;;;;8.23;7.00;;;8.90;99.90;;;;;;2235676;26;20064;-71
2024/04/24 00:14:38;;;;;;;10.35;7.10;;;8.90;99.90;;;;;;2237010;26;19996;-70
2024/04/24 00:15:41;;;;;;;8.40;6.72;;;8.90;99.90;;;;;;2238404;26;20002;-71
2024/04/24 00:16:41;;;;;;;7.80;6.60;;;8.80;99.90;;;;;;2236700;26;20635;-71
2024/04/24 00:17:42;;;;;;;7.00;5.50;;;8.80;99.90;;;;;;2237276;26;20422;-71
2024/04/24 00:18:42;;;;;;;10.88;7.13;;;8.80;99.90;;;;;;2238856;26;20447;-71
2024/04/24 00:19:43;;;;;;;8.77;6.05;;;8.80;99.90;;;;;;2236870;26;20510;-71
2024/04/24 00:20:43;;;;;;;8.07;6.22;;;8.80;99.90;;;;;;2237870;26;20459;-71
2024/04/24 00:21:44;;;;;;;6.90;4.95;;;8.70;99.90;;;;;;2236342;26;20504;-71
2024/04/24 00:22:44;;;;;;;10.88;5.88;;;8.70;99.90;;;;;;2237218;26;21644;-71
2024/04/24 00:23:45;;;;;;;8.05;4.75;;;8.70;99.90;;;;;;2223041;26;20000;-71
2024/04/24 00:24:48;;;;;;;6.45;4.10;;;8.70;99.90;;;;;;2233209;26;20007;-71
2024/04/24 00:25:49;;;;;;;8.75;3.78;;;8.70;99.90;;;;;;2238607;26;20456;-71
2024/04/24 00:26:49;;;;;;;8.75;3.22;;;8.60;99.90;;;;;;2238337;26;20378;-71
2024/04/24 00:27:56;;;;;;;8.57;3.50;;;8.60;99.70;;;;;;2239787;26;20015;-71
2024/04/24 00:28:57;;;;;;;5.13;3.35;;;8.60;99.70;;;;;;2238082;26;20440;-71
2024/04/24 00:29:57;;;;;;;7.72;3.67;;;8.60;99.30;;;;;;2236811;26;20368;-71
2024/04/24 00:31:01;;;;;;;5.95;3.00;;;8.60;99.20;;;;;;2237894;26;19999;-72
2024/04/24 00:32:05;;;;;;;6.43;3.83;;;8.50;99.20;;;;;;2237914;26;20007;-71
2024/04/24 00:33:05;;;;;;;7.95;3.55;;;8.60;99.20;;;;;;2235692;26;20077;-71
2024/04/24 00:34:06;;;;;;;10.00;3.67;;;8.60;99.30;;;;;;2238425;26;20003;-71
2024/04/24 00:35:06;;;;;;;7.20;2.78;;;8.50;99.20;;;;;;2250153;26;20007;-71
2024/04/24 00:36:07;;;;;;;6.78;2.47;;;8.50;99.10;;;;;;2236602;26;20019;-71
2024/04/24 00:37:08;;;;;;;7.15;2.75;;;8.50;98.90;;;;;;2231480;26;20012;-71
2024/04/24 00:38:08;;;;;;;5.28;2.42;;;8.40;98.70;;;;;;2248975;26;19998;-72
2024/04/24 00:39:09;;;;;;;7.88;2.47;;;8.40;98.50;;;;;;2250648;26;19999;-72
2024/04/24 00:40:10;;;;;;;6.07;2.85;;;8.40;98.40;;;;;;2234894;26;20080;-72
2024/04/24 00:41:10;;;;;;;5.57;2.75;;;8.40;98.50;;;;;;2230741;26;20011;-72
2024/04/24 00:42:20;;;;;;;4.85;2.70;;;8.40;98.40;;;;;;2250821;26;20439;-71
2024/04/24 00:43:20;;;;;;;5.57;2.97;;;8.40;98.70;;;;;;2247515;26;20014;-71
2024/04/24 00:44:21;;;;;;;8.43;3.20;;;8.40;98.60;;;;;;2249732;26;20043;-71
2024/04/24 00:45:21;;;;;;;8.32;2.72;;;8.40;98.70;;;;;;2249685;26;20788;-72
2024/04/24 00:46:24;;;;;;;5.65;2.60;;;8.30;98.60;;;;;;2250525;26;20002;-71
2024/04/24 00:47:25;;;;;;;5.40;3.00;;;8.30;98.50;;;;;;2237400;26;20010;-71
2024/04/24 00:48:26;;;;;;;6.40;2.88;;;8.30;98.50;;;;;;2236485;26;20372;-71
2024/04/24 00:49:27;;;;;;;5.75;2.90;;;8.30;98.40;;;;;;2238672;26;20011;-71
2024/04/24 00:50:29;;;;;;;6.47;2.83;;;8.30;98.30;;;;;;2235283;26;20860;-71
2024/04/24 00:51:31;;;;;;;6.88;2.92;;;8.20;98.50;;;;;;2236563;26;20004;-71
2024/04/24 00:52:31;;;;;;;7.97;3.17;;;8.20;98.60;;;;;;2236515;26;20007;-71
2024/04/24 00:53:32;;;;;;;5.45;2.72;;;8.20;98.60;;;;;;2236915;26;20073;-71
2024/04/24 00:54:33;;;;;;;7.88;3.40;;;8.20;98.70;;;;;;2250854;26;20035;-71
2024/04/24 00:55:34;;;;;;;6.00;3.38;;;8.20;98.80;;;;;;2250948;26;19999;-71
2024/04/24 00:56:35;;;;;;;6.72;3.40;;;8.20;98.90;;;;;;2250450;26;20011;-71
2024/04/24 00:57:36;;;;;;;5.63;2.80;;;8.20;98.90;;;;;;2251386;26;20018;-71
2024/04/24 00:58:39;;;;;;;6.63;3.55;;;8.20;99.10;;;;;;2238372;26;19999;-72
2024/04/24 00:59:40;;;;;;;12.13;3.17;;;8.20;99.10;;;;;;2236000;26;20000;-71
2024/04/24 01:00:41;;;;;;;7.95;2.80;;;8.30;99.10;;;;;;2237373;26;20031;-71
2024/04/24 01:01:41;;;;;;;8.95;2.88;;;8.30;99.10;;;;;;2235647;26;19999;-71
2024/04/24 01:02:43;;;;;;;7.25;3.13;;;8.30;99.00;;;;;;2235312;26;20014;-71
2024/04/24 01:03:44;;;;;;;7.40;3.10;;;8.30;98.80;;;;;;2235500;26;20068;-71
2024/04/24 01:04:44;;;;;;;6.10;3.75;;;8.30;98.70;;;;;;2236549;26;20080;-70
2024/04/24 01:05:45;;;;;;;5.85;3.08;;;8.30;98.80;;;;;;2238018;26;20379;-72
2024/04/24 01:06:45;;;;;;;4.43;3.22;;;8.30;99.00;;;;;;2235480;26;20000;-72
2024/04/24 01:07:46;;;;;;;5.72;2.75;;;8.30;99.10;;;;;;2236946;26;20393;-72
2024/04/24 01:08:47;;;;;;;7.78;3.20;;;8.30;99.20;;;;;;2237420;26;20047;-72
2024/04/24 01:09:47;;;;;;;6.75;3.15;;;8.30;99.30;;;;;;2237311;26;20011;-72
2024/04/24 01:10:55;;;;;;;6.88;3.20;;;8.30;99.30;;;;;;2236763;26;20045;-70
2024/04/24 01:11:55;;;;;;;9.77;4.85;;;8.30;99.60;;;;;;2236725;26;20003;-70
2024/04/24 01:12:56;;;;;;;8.55;5.20;;;8.30;99.50;;;;;;2237584;26;20007;-72
2024/04/24 01:13:57;;;;;;;6.53;3.50;;;8.30;99.60;;;;;;2234557;26;20069;-70
2024/04/24 01:14:57;;;;;;;9.10;3.53;;;8.30;99.60;;;;;;2233918;26;20008;-72
2024/04/24 01:16:17;;;;;;;6.70;2.70;;;8.30;99.70;;;;;;2233844;26;20046;-72
2024/04/24 01:17:17;;;;;;;11.98;2.90;;;8.30;99.90;;;;;;2239507;26;20007;-69
2024/04/24 01:18:18;;;;;;;6.05;2.78;;;8.30;99.80;;;;;;2236382;26;20072;-70
2024/04/24 01:19:48;;;;;;;9.38;2.70;;;8.30;99.60;;;;;;2235623;26;20007;-72
2024/04/24 01:20:50;;;;;;;5.72;2.60;;;8.30;99.60;;;;;;2236750;26;20047;-72
2024/04/24 01:22:21;;;;;;;7.20;2.67;;;8.30;99.30;;;;;;2252822;26;20734;-70
2024/04/24 01:23:30;;;;;;;5.65;3.08;;;8.30;99.60;;;;;;2244851;26;20014;-72
2024/04/24 01:24:36;;;;;;;7.00;2.67;;;8.30;99.30;;;;;;2236200;26;20459;-72
2024/04/24 01:25:51;;;;;;;5.75;3.22;;;8.30;99.50;;;;;;2237238;26;20073;-72
2024/04/24 01:26:52;;;;;;;7.22;2.88;;;8.30;99.60;;;;;;2237586;26;21385;-72
2024/04/24 01:27:53;;;;;;;7.65;2.72;;;8.30;99.60;;;;;;2237090;26;19999;-72
2024/04/24 01:28:54;;;;;;;5.47;3.10;;;8.30;99.60;;;;;;2250072;26;20010;-72
2024/04/24 01:29:55;;;;;;;4.28;2.28;;;8.30;99.50;;;;;;2249549;26;20038;-72
2024/04/24 01:30:55;;;;;;;6.07;2.90;;;8.30;99.50;;;;;;2235681;26;20076;-72
2024/04/24 01:31:56;;;;;;;6.47;2.78;;;8.30;99.40;;;;;;2237321;26;20000;-72
2024/04/24 01:32:56;;;;;;;6.85;2.65;;;8.30;99.30;;;;;;2235809;26;20443;-72
2024/04/24 01:33:57;;;;;;;5.57;2.30;;;8.30;99.30;;;;;;2237312;26;20011;-72
2024/04/24 01:34:57;;;;;;;4.97;2.20;;;8.30;99.20;;;;;;2232768;26;19999;-71
2024/04/24 01:35:58;;;;;;;4.97;2.10;;;8.30;99.20;;;;;;2230222;26;20336;-71
2024/04/24 01:36:59;;;;;;;4.70;2.53;;;8.30;99.10;;;;;;2247148;26;19995;-71
2024/04/24 01:37:59;;;;;;;7.05;2.30;;;8.30;99.10;;;;;;2251437;26;20588;-72
2024/04/24 01:39:00;;;;;;;4.55;2.25;;;8.30;98.90;;;;;;2238036;26;20008;-71
2024/04/24 01:40:00;;;;;;;6.75;1.85;;;8.30;98.90;;;;;;2237387;26;20463;-71
2024/04/24 01:41:01;;;;;;;4.20;2.10;;;8.30;98.90;;;;;;2236533;26;20011;-71
2024/04/24 01:42:02;;;;;;;4.50;2.20;;;8.30;98.80;;;;;;2238375;26;20000;-72
2024/04/24 01:43:02;;;;;;;5.80;2.00;;;8.30;98.80;;;;;;2233394;26;20006;-71
2024/04/24 01:44:03;;;;;;;3.00;1.63;;;8.30;98.70;;;;;;2238615;26;20015;-71
2024/04/24 01:45:04;;;;;;;5.13;2.00;;;8.30;98.70;;;;;;2236326;26;20059;-72
2024/04/24 01:46:04;;;;;;;8.38;2.65;;;8.30;98.50;;;;;;2237438;26;19999;-71
2024/04/24 01:47:05;;;;;;;4.00;1.75;;;8.30;98.50;;;;;;2234834;26;20011;-72
2024/04/24 01:48:06;;;;;;;5.70;1.98;;;8.30;98.60;;;;;;2238595;26;19999;-72
2024/04/24 01:49:06;;;;;;;3.42;1.65;;;8.30;98.50;;;;;;2236120;26;20005;-72
2024/04/24 01:50:07;;;;;;;12.50;2.95;;;8.30;98.40;;;;;;2236690;26;20007;-71
2024/04/24 01:51:07;;;;;;;6.40;2.00;;;8.30;98.30;;;;;;2236530;26;20407;-72
2024/04/24 01:52:08;;;;;;;4.60;1.70;;;8.30;98.20;;;;;;2232673;26;20000;-72
2024/04/24 01:53:08;;;;;;;5.72;1.60;;;8.30;98.20;;;;;;2237358;26;20004;-72
2024/04/24 01:54:09;;;;;;;6.22;1.90;;;8.30;98.20;;;;;;2236646;26;20003;-71
2024/04/24 01:55:09;;;;;;;6.07;1.50;;;8.30;98.10;;;;;;2235058;26;20023;-71
2024/04/24 01:56:11;;;;;;;5.72;1.70;;;8.30;98.00;;;;;;2237981;26;20007;-71
2024/04/24 01:57:12;;;;;;;5.93;1.60;;;8.30;97.80;;;;;;2234890;26;20018;-71
2024/04/24 01:58:12;;;;;;;4.20;2.03;;;8.30;97.90;;;;;;2237238;26;19996;-71
2024/04/24 01:59:13;;;;;;;4.43;1.50;;;8.30;98.00;;;;;;2237119;26;20012;-71
2024/04/24 02:00:13;;;;;;;4.13;1.63;;;8.30;97.90;;;;;;2236032;26;20473;-71
2024/04/24 02:01:14;;;;;;;3.45;1.67;;;8.30;97.80;;;;;;2238069;26;19999;-71
2024/04/24 02:02:14;;;;;;;5.15;1.60;;;8.30;97.50;;;;;;2236386;26;20773;-71
2024/04/24 02:03:15;;;;;;;3.50;1.90;;;8.30;97.50;;;;;;2236179;26;20409;-72
2024/04/24 02:04:16;;;;;;;4.90;2.00;;;8.30;97.60;;;;;;2237050;26;20000;-71
2024/04/24 02:05:16;;;;;;;5.25;1.83;;;8.30;97.70;;;;;;2235099;26;20003;-71
2024/04/24 02:06:17;;;;;;;5.13;1.85;;;8.30;97.70;;;;;;2235706;26;20041;-71
2024/04/24 02:07:18;;;;;;;4.95;2.03;;;8.30;97.80;;;;;;2236783;26;19999;-71
2024/04/24 02:08:18;;;;;;;4.45;2.10;;;8.30;97.80;;;;;;2250532;26;20003;-71
2024/04/24 02:09:19;;;;;;;3.63;1.67;;;8.30;97.80;;;;;;2237680;26;20456;-71
2024/04/24 02:10:19;;;;;;;7.72;2.30;;;8.20;97.90;;;;;;2235791;26;20084;-71
2024/04/24 02:11:20;;;;;;;3.83;1.90;;;8.20;98.00;;;;;;2232872;26;20028;-71
2024/04/24 02:12:21;;;;;;;4.75;2.17;;;8.20;98.00;;;;;;2234243;26;20003;-71
2024/04/24 02:13:21;;;;;;;6.07;1.60;;;8.20;98.10;;;;;;2237723;26;20015;-71
2024/04/24 02:14:22;;;;;;;3.38;1.73;;;8.20;98.20;;;;;;2236334;26;20014;-71
2024/04/24 02:15:22;;;;;;;4.20;1.80;;;8.20;98.30;;;;;;2236332;26;20347;-72
2024/04/24 02:16:23;;;;;;;5.05;1.63;;;8.20;98.40;;;;;;2237131;26;20011;-73
2024/04/24 02:17:23;;;;;;;6.53;1.83;;;8.20;98.50;;;;;;2235286;26;20071;-71
2024/04/24 02:18:24;;;;;;;3.78;1.85;;;8.10;98.50;;;;;;2252485;26;20031;-71
2024/04/24 02:19:24;;;;;;;6.25;1.80;;;8.10;98.40;;;;;;2248763;26;20405;-72
2024/04/24 02:20:28;;;;;;;3.47;2.15;;;8.20;98.10;;;;;;2238156;26;20003;-71
2024/04/24 02:21:28;;;;;;;5.43;2.33;;;8.20;98.20;;;;;;2237277;26;20004;-71
2024/04/24 02:22:30;;;;;;;4.75;2.00;;;8.20;98.20;;;;;;2235372;26;20039;-71
2024/04/24 02:23:31;;;;;;;6.32;2.35;;;8.10;98.30;;;;;;2237748;26;20463;-72
2024/04/24 02:25:51;;;;;;;5.30;2.13;;;8.10;98.40;;;;;;2231310;26;20011;-71
2024/04/24 02:26:51;;;;;;;4.55;1.92;;;8.10;98.60;;;;;;2235825;26;20003;-71
2024/04/24 02:27:52;;;;;;;4.03;2.38;;;8.10;98.60;;;;;;2237143;26;20000;-72
2024/04/24 02:28:52;;;;;;;7.50;3.05;;;8.10;98.70;;;;;;2237222;26;20039;-72
2024/04/24 02:29:53;;;;;;;6.85;2.67;;;8.10;98.60;;;;;;2233602;26;20458;-72
2024/04/24 02:30:53;;;;;;;4.28;2.42;;;8.10;98.70;;;;;;2236287;26;19999;-72
2024/04/24 02:31:57;;;;;;;6.80;2.17;;;8.10;98.80;;;;;;2233346;26;20076;-72
2024/04/24 02:32:57;;;;;;;4.30;2.10;;;8.10;98.80;;;;;;2248554;26;20765;-72
2024/04/24 02:33:58;;;;;;;4.57;1.95;;;8.10;98.80;;;;;;2251496;26;20050;-71
2024/04/24 02:34:59;;;;;;;4.95;2.30;;;8.10;98.90;;;;;;2236524;26;20015;-72
2024/04/24 02:35:59;;;;;;;4.32;2.30;;;8.10;98.90;;;;;;2235459;26;20084;-72
2024/04/24 02:37:00;;;;;;;5.57;2.28;;;8.10;99.10;;;;;;2237400;26;19999;-72
2024/04/24 02:38:00;;;;;;;8.27;2.83;;;8.10;99.10;;;;;;2237149;26;20003;-72
2024/04/24 02:39:01;;;;;;;7.13;2.53;;;8.10;99.20;;;;;;2238115;26;20096;-72
2024/04/24 02:40:01;;;;;;;6.40;2.10;;;8.10;99.20;;;;;;2236348;26;20014;-72
2024/04/24 02:41:02;;;;;;;5.22;2.22;;;8.10;99.30;;;;;;2235384;26;20000;-71
2024/04/24 02:42:03;;;;;;;5.18;2.60;;;8.10;99.40;;;;;;2237510;26;19999;-72
2024/04/24 02:43:03;;;;;;;4.22;1.98;;;8.10;99.40;;;;;;2235019;26;19995;-72
2024/04/24 02:44:07;;;;;;;7.53;2.58;;;8.10;99.50;;;;;;2236985;26;20035;-72
2024/04/24 02:45:07;;;;;;;4.78;2.05;;;8.00;99.50;;;;;;2235456;26;20011;-71
2024/04/24 02:46:08;;;;;;;7.75;2.33;;;8.10;99.60;;;;;;2236520;26;20000;-71
2024/04/24 02:47:08;;;;;;;6.20;2.25;;;8.00;99.70;;;;;;2237813;26;20018;-71
2024/04/24 02:48:12;;;;;;;4.68;2.60;;;8.00;99.80;;;;;;2236161;26;20003;-71
2024/04/24 02:49:13;;;;;;;6.93;2.70;;;8.00;99.90;;;;;;2236126;26;20444;-71
2024/04/24 02:50:13;;;;;;;11.70;2.42;;;8.00;99.90;;;;;;2235992;26;20361;-72
2024/04/24 02:51:14;;;;;;;7.72;2.92;;;8.00;99.90;;;;;;2234514;26;20379;-72
2024/04/24 02:52:15;;;;;;;6.65;2.42;;;8.00;99.90;;;;;;2237284;26;20014;-72
2024/04/24 02:53:15;;;;;;;7.18;2.80;;;8.00;99.90;;;;;;2236445;26;20007;-72
2024/04/24 02:54:16;;;;;;;4.13;2.10;;;8.00;99.90;;;;;;2235914;26;20088;-71
2024/04/24 02:55:16;;;;;;;5.70;2.50;;;8.00;99.90;;;;;;2238060;26;20008;-72
2024/04/24 02:56:17;;;;;;;4.32;2.85;;;8.00;99.90;;;;;;2235463;26;20349;-72
2024/04/24 02:57:17;;;;;;;10.13;2.88;;;8.00;99.90;;;;;;2249143;26;20000;-72
2024/04/24 02:58:18;;;;;;;7.07;3.47;;;8.00;99.90;;;;;;2249555;26;20007;-72
2024/04/24 02:59:19;;;;;;;7.70;3.17;;;8.00;99.90;;;;;;2234604;26;20066;-72
2024/04/24 03:00:20;;;;;;;5.85;3.20;;;8.00;99.90;;;;;;2237243;26;20094;-71
2024/04/24 03:01:20;;;;;;;6.55;3.13;;;8.00;99.90;;;;;;2236245;26;19996;-71
2024/04/24 03:02:21;;;;;;;5.97;2.88;;;8.00;99.90;;;;;;2234040;26;20625;-71
2024/04/24 03:03:21;;;;;;;7.53;3.10;;;8.00;99.90;;;;;;2237969;26;20382;-72
2024/04/24 03:04:22;;;;;;;8.55;3.60;;;8.00;99.90;;;;;;2234527;26;20368;-71
2024/04/24 03:05:22;;;;;;;6.57;3.28;;;8.00;99.90;;;;;;2237204;26;20007;-72
2024/04/24 03:06:23;;;;;;;6.13;3.15;;;8.00;99.90;;;;;;2236630;26;20014;-71
2024/04/24 03:07:23;;;;;;;10.90;3.80;;;8.00;99.90;;;;;;2235871;26;20004;-71
2024/04/24 03:08:24;;;;;;;8.65;3.85;;;8.00;99.90;;;;;;2241355;26;20013;-72
2024/04/24 03:09:25;;;;;;;9.32;3.60;;;8.00;99.90;;;;;;2240249;26;20066;-71
2024/04/24 03:10:26;;;;;;;9.40;3.65;;;8.00;99.90;;;;;;2235949;26;20003;-72
2024/04/24 03:11:26;;;;;;;8.02;3.58;;;8.00;99.90;;;;;;2237313;26;20000;-72
2024/04/24 03:12:27;;;;;;;11.02;3.55;;;8.00;99.90;;;;;;2236458;26;20207;-72
2024/04/24 03:13:27;;;;;;;6.03;3.63;;;8.00;99.90;;;;;;2236804;26;20000;-71
2024/04/24 03:14:28;;;;;;;7.00;3.42;;;8.00;99.90;;;;;;2237080;26;20003;-71
2024/04/24 03:15:28;;;;;;;11.20;3.70;;;8.00;99.90;;;;;;2236372;26;20014;-71
2024/04/24 03:16:30;;;;;;;6.70;3.50;;;8.00;99.90;;;;;;2237766;26;20012;-72
2024/04/24 03:17:30;;;;;;;6.43;3.00;;;8.00;99.90;;;;;;2237251;26;20344;-72
2024/04/24 03:18:31;;;;;;;8.18;3.75;;;8.00;99.90;;;;;;2252506;26;20006;-71
2024/04/24 03:19:31;;;;;;;7.35;3.08;;;8.00;99.90;;;;;;2250309;26;20486;-72
2024/04/24 03:20:32;;;;;;;10.00;3.63;;;8.00;99.90;;;;;;2238044;26;19999;-72
2024/04/24 03:21:32;;;;;;;7.90;3.10;;;8.00;99.90;;;;;;2238758;26;20035;-71
2024/04/24 03:22:33;;;;;;;8.00;3.38;;;7.90;99.90;;;;;;2237134;26;20015;-71
2024/04/24 03:23:34;;;;;;;5.97;2.80;;;8.00;99.90;;;;;;2239239;26;20567;-72
2024/04/24 03:24:34;;;;;;;8.25;4.25;;;7.90;99.90;;;;;;2235656;26;20454;-72
2024/04/24 03:25:35;;;;;;;6.85;3.03;;;7.90;99.90;;;;;;2239145;26;20372;-72
2024/04/24 03:26:35;;;;;;;9.98;3.20;;;7.90;99.90;;;;;;2239496;26;20003;-72
2024/04/24 03:27:36;;;;;;;6.18;3.00;;;7.90;99.90;;;;;;2237207;26;20014;-72
2024/04/24 03:28:38;;;;;;;6.07;3.05;;;7.90;99.90;;;;;;2236185;26;20006;-71
2024/04/24 03:29:38;;;;;;;9.00;3.45;;;7.90;99.90;;;;;;2238658;26;20007;-72
2024/04/24 03:30:42;;;;;;;8.82;3.10;;;7.90;99.90;;;;;;2236607;26;20061;-72
2024/04/24 03:31:42;;;;;;;7.53;3.30;;;7.90;99.90;;;;;;2237508;26;20365;-71
2024/04/24 03:32:43;;;;;;;7.55;2.88;;;7.90;99.90;;;;;;2238461;26;20003;-72
2024/04/24 03:33:43;;;;;;;9.10;2.78;;;7.90;99.90;;;;;;2233812;26;20063;-72
2024/04/24 03:34:44;;;;;;;6.22;2.70;;;7.80;99.90;;;;;;2233334;26;20361;-72
2024/04/24 03:35:44;;;;;;;7.60;2.90;;;7.80;99.90;;;;;;2243366;26;19998;-72
2024/04/24 03:36:45;;;;;;;7.50;2.85;;;7.80;99.90;;;;;;2238043;26;19999;-72
2024/04/24 03:37:46;;;;;;;6.72;3.00;;;7.80;99.90;;;;;;2237598;26;20093;-72
2024/04/24 03:38:47;;;;;;;6.82;3.05;;;7.80;99.90;;;;;;2239216;26;20078;-71
2024/04/24 03:39:47;;;;;;;7.78;3.08;;;7.80;99.90;;;;;;2234712;26;20011;-73
2024/04/24 03:40:48;;;;;;;8.55;3.47;;;7.80;99.90;;;;;;2235091;26;20018;-72
2024/04/24 03:41:48;;;;;;;9.05;3.03;;;7.80;99.90;;;;;;2237614;26;19999;-72
2024/04/24 03:42:49;;;;;;;8.30;2.78;;;7.80;99.90;;;;;;2236418;26;20008;-71
2024/04/24 03:43:49;;;;;;;6.50;3.13;;;7.70;99.90;;;;;;2237733;26;20000;-71
2024/04/24 03:44:50;;;;;;;6.40;2.47;;;7.70;99.90;;;;;;2238052;26;20000;-72
2024/04/24 03:45:50;;;;;;;5.00;2.78;;;7.80;99.90;;;;;;2237057;26;20000;-72
2024/04/24 03:46:51;;;;;;;6.13;2.58;;;7.80;99.90;;;;;;2238608;26;20000;-71
2024/04/24 03:47:52;;;;;;;9.55;3.28;;;7.80;99.90;;;;;;2236920;26;20003;-71
2024/04/24 03:48:52;;;;;;;5.70;2.65;;;7.80;99.90;;;;;;2236426;26;20066;-71
2024/04/24 03:49:52;;;;;;;9.07;3.22;;;7.80;99.90;;;;;;2238798;26;20371;-72
2024/04/24 03:50:53;;;;;;;7.65;2.90;;;7.70;99.90;;;;;;2236378;26;20003;-72
2024/04/24 03:51:54;;;;;;;8.27;2.75;;;7.80;99.90;;;;;;2236853;26;20011;-72
2024/04/24 03:52:55;;;;;;;9.32;2.70;;;7.80;99.90;;;;;;2251916;26;20014;-72
2024/04/24 03:53:55;;;;;;;8.35;2.90;;;7.70;99.90;;;;;;2235475;26;20000;-72
2024/04/24 03:54:56;;;;;;;6.97;2.80;;;7.70;99.90;;;;;;2238892;26;20580;-72
2024/04/24 03:55:56;;;;;;;7.57;2.75;;;7.70;99.90;;;;;;2236609;26;20586;-72
2024/04/24 03:56:57;;;;;;;5.63;2.75;;;7.70;99.90;;;;;;2237968;26;20067;-72
2024/04/24 03:57:57;;;;;;;7.30;3.00;;;7.70;99.90;;;;;;2238471;26;20023;-73
2024/04/24 03:58:58;;;;;;;9.23;3.78;;;7.70;99.90;;;;;;2234919;26;20035;-72
2024/04/24 03:59:59;;;;;;;9.82;2.85;;;7.70;99.90;;;;;;2245290;26;20002;-71
2024/04/24 04:00:59;;;;;;;6.38;2.80;;;7.70;99.90;;;;;;2252087;26;20365;-72
2024/04/24 04:02:00;;;;;;;8.52;3.05;;;7.70;99.90;;;;;;2236450;26;20480;-72
2024/04/24 04:03:00;;;;;;;9.18;3.05;;;7.70;99.90;;;;;;2238281;26;20437;-72
2024/04/24 04:04:01;;;;;;;8.80;3.15;;;7.70;99.90;;;;;;2237895;26;19999;-72
2024/04/24 04:05:01;;;;;;;6.85;3.05;;;7.70;99.90;;;;;;2236343;26;19996;-72
2024/04/24 04:06:02;;;;;;;9.23;3.80;;;7.70;99.90;;;;;;2237843;26;20077;-71
2024/04/24 04:07:02;;;;;;;6.97;2.90;;;7.60;99.90;;;;;;2250058;26;20088;-72
2024/04/24 04:08:03;;;;;;;6.47;3.00;;;7.60;99.90;;;;;;2250525;26;20340;-71
2024/04/24 04:09:04;;;;;;;9.63;3.47;;;7.60;99.90;;;;;;2238516;26;20345;-71
2024/04/24 04:10:05;;;;;;;6.90;3.10;;;7.60;99.90;;;;;;2235007;26;20712;-72
2024/04/24 04:11:05;;;;;;;7.10;2.65;;;7.60;99.90;;;;;;2233852;26;20018;-72
2024/04/24 04:12:07;;;;;;;7.40;3.28;;;7.70;99.90;;;;;;2237224;26;20007;-73
2024/04/24 04:13:07;;;;;;;6.38;2.88;;;7.70;99.90;;;;;;2237805;26;20342;-71
2024/04/24 04:14:08;;;;;;;7.35;3.17;;;7.60;99.90;;;;;;2236166;26;20007;-72
2024/04/24 04:15:08;;;;;;;7.35;3.60;;;7.60;99.90;;;;;;2238183;26;20010;-72
2024/04/24 04:16:09;;;;;;;9.88;3.08;;;7.60;99.90;;;;;;2237920;26;20003;-72
2024/04/24 04:17:09;;;;;;;5.68;3.13;;;7.60;99.90;;;;;;2234572;26;20030;-72
2024/04/24 04:18:10;;;;;;;8.07;3.35;;;7.60;99.90;;;;;;2238301;26;19999;-72
2024/04/24 04:19:10;;;;;;;7.72;3.10;;;7.60;99.90;;;;;;2236976;26;20539;-72
2024/04/24 04:20:11;;;;;;;5.63;3.13;;;7.60;99.90;;;;;;2234496;26;20028;-72
2024/04/24 04:21:12;;;;;;;6.18;2.83;;;7.60;99.90;;;;;;2238464;26;20017;-72
2024/04/24 04:22:14;;;;;;;12.25;3.42;;;7.70;99.90;;;;;;2235258;26;20014;-71
2024/04/24 04:23:15;;;;;;;6.28;3.22;;;7.70;99.90;;;;;;2236526;26;20015;-71
2024/04/24 04:24:15;;;;;;;10.57;3.78;;;7.70;99.90;;;;;;2236889;26;21175;-71
2024/04/24 04:25:16;;;;;;;6.22;3.03;;;7.70;99.90;;;;;;2235401;26;19999;-72
2024/04/24 04:26:16;;;;;;;6.97;3.63;;;7.70;99.90;;;;;;2237631;26;20053;-72
2024/04/24 04:27:17;;;;;;;5.07;3.08;;;7.70;99.90;;;;;;2235908;26;19992;-72
2024/04/24 04:28:17;;;;;;;13.50;3.20;;;7.70;99.90;;;;;;2236657;26;20787;-71
2024/04/24 04:29:19;;;;;;;8.15;3.25;;;7.70;99.90;;;;;;2238080;26;20086;-72
2024/04/24 04:30:19;;;;;;;9.20;3.72;;;7.70;99.90;;;;;;2239480;26;19996;-72
2024/04/24 04:31:20;;;;;;;7.80;3.65;;;7.70;99.90;;;;;;2236005;26;20010;-71
2024/04/24 04:32:20;;;;;;;7.63;3.30;;;7.70;99.90;;;;;;2251578;26;19998;-72
2024/04/24 04:33:21;;;;;;;6.00;3.22;;;7.70;99.90;;;;;;2250978;26;20078;-72
2024/04/24 04:34:22;;;;;;;8.52;3.78;;;7.70;99.90;;;;;;2238451;26;20000;-72
2024/04/24 04:35:22;;;;;;;8.70;3.97;;;7.70;99.90;;;;;;2237283;26;20466;-72
2024/04/24 04:36:23;;;;;;;9.40;3.53;;;7.70;99.90;;;;;;2235814;26;19999;-72
2024/04/24 04:37:23;;;;;;;6.38;3.85;;;7.70;99.90;;;;;;2236139;26;19995;-72
2024/04/24 04:38:24;;;;;;;10.00;4.00;;;7.70;99.90;;;;;;2238270;26;22030;-72
2024/04/24 04:39:24;;;;;;;7.70;3.80;;;7.70;99.90;;;;;;2235607;26;20374;-71
2024/04/24 04:40:25;;;;;;;10.07;3.88;;;7.70;99.90;;;;;;2238567;26;20449;-72
2024/04/24 04:41:25;;;;;;;8.35;3.83;;;7.70;99.90;;;;;;2235359;26;20003;-72
2024/04/24 04:42:26;;;;;;;9.52;4.13;;;7.70;99.90;;;;;;2238016;26;20011;-71
2024/04/24 04:43:26;;;;;;;8.32;4.22;;;7.70;99.90;;;;;;2236402;26;20076;-72
2024/04/24 04:44:27;;;;;;;7.10;3.65;;;7.70;99.90;;;;;;2236528;26;21964;-72
2024/04/24 04:45:27;;;;;;;6.15;4.35;;;7.60;99.90;;;;;;2234718;26;20004;-72
2024/04/24 04:46:28;;;;;;;10.27;4.25;;;7.60;99.90;;;;;;2226496;26;20069;-72
2024/04/24 04:47:28;;;;;;;8.85;4.25;;;7.60;99.90;;;;;;2237480;26;20010;-72
2024/04/24 04:48:29;;;;;;;8.05;4.25;;;7.60;99.90;;;;;;2251609;26;20027;-71
2024/04/24 04:49:29;;;;;;;9.13;4.05;;;7.60;99.90;;;;;;2238031;26;20453;-72
2024/04/24 04:50:30;;;;;;;9.30;4.13;;;7.60;99.90;;;;;;2237869;26;20007;-72
2024/04/24 04:51:30;;;;;;;8.85;3.88;;;7.60;99.90;;;;;;2237090;26;20006;-72
2024/04/24 04:52:31;;;;;;;11.75;3.58;;;7.60;99.90;;;;;;2237085;26;20355;-72
2024/04/24 04:53:31;;;;;;;7.82;3.80;;;7.60;99.90;;;;;;2235784;26;20447;-72
2024/04/24 04:54:32;;;;;;;10.02;3.70;;;7.60;99.90;;;;;;2236999;26;20010;-72
2024/04/24 04:55:32;;;;;;;10.07;4.07;;;7.60;99.90;;;;;;2235624;26;20014;-72
2024/04/24 04:56:33;;;;;;;9.20;3.97;;;7.60;99.90;;;;;;2237761;26;19996;-72
2024/04/24 04:57:33;;;;;;;11.82;4.05;;;7.60;99.90;;;;;;2236249;26;20336;-72
2024/04/24 04:58:34;;;;;;;7.28;4.15;;;7.60;99.90;;;;;;2237445;26;19996;-72
2024/04/24 04:59:35;;;;;;;7.80;4.20;;;7.60;99.90;;;;;;2236466;26;20134;-71
2024/04/24 05:00:35;;;;;;;11.73;4.38;;;7.60;99.90;;;;;;2235605;26;20014;-72
2024/04/24 05:01:36;;;;;;;8.02;4.40;;;7.60;99.90;;;;;;2234812;26;20061;-72
2024/04/24 05:02:37;;;;;;;9.80;4.30;;;7.60;99.90;;;;;;2237740;26;20000;-72
2024/04/24 05:03:37;;;;;;;11.88;5.25;;;7.70;99.90;;;;;;2250939;26;19994;-71
2024/04/24 05:04:38;;;;;;;11.35;4.70;;;7.70;99.90;;;;;;2251015;26;19995;-72
2024/04/24 05:05:39;;;;;;;11.32;4.40;;;7.70;99.90;;;;;;2236415;26;20007;-72
2024/04/24 05:06:39;;;;;;;10.75;3.70;;;7.70;99.90;;;;;;2234413;26;19999;-72
2024/04/24 05:07:40;;;;;;;6.25;3.85;;;7.70;99.90;;;;;;2234057;26;20019;-72
2024/04/24 05:08:40;;;;;;;12.63;4.45;;;7.70;99.90;;;;;;2235150;26;20022;-72
2024/04/24 05:09:41;;;;;;;9.07;4.22;;;7.70;99.90;;;;;;2232150;26;20031;-71
2024/04/24 05:10:41;;;;;;;8.38;4.00;;;7.70;99.90;;;;;;2238017;26;19991;-71
2024/04/24 05:11:45;;;;;;;8.18;3.97;;;7.70;99.90;;;;;;2237190;26;20073;-71
2024/04/24 05:12:46;;;;;;;11.63;4.18;;;7.70;99.90;;;;;;2237622;26;20007;-72
2024/04/24 05:13:47;;;;;;;7.75;3.95;;;7.70;99.90;;;;;;2231669;26;20418;-72
2024/04/24 05:14:50;;;;;;;13.73;4.15;;;7.70;99.90;;;;;;2232913;26;20041;-72
2024/04/24 05:15:51;;;;;;;13.13;4.20;;;7.70;99.90;;;;;;2236393;26;20749;-72
2024/04/24 05:16:54;;;;;;;7.88;3.97;;;7.70;99.90;;;;;;2240584;26;20018;-72
2024/04/24 05:17:55;;;;;;;9.55;3.90;;;7.70;99.90;;;;;;2237236;26;20367;-71
2024/04/24 05:18:55;;;;;;;10.15;4.65;;;7.60;99.90;;;;;;2236270;26;20031;-71
2024/04/24 05:19:56;;;;;;;11.45;3.47;;;7.60;99.90;;;;;;2237245;26;20015;-72
2024/04/24 05:20:58;;;;;;;8.90;4.00;;;7.60;99.90;;;;;;2235979;26;20003;-72
2024/04/24 05:21:59;;;;;;;10.90;4.68;;;7.60;99.90;;;;;;2220565;26;20004;-72
2024/04/24 05:23:04;;;;;;;11.15;3.80;;;7.60;99.90;;;;;;2233943;26;20000;-73